createdAt,value
2022-10-22T00:00:00.751Z,13.76
2022-10-22T00:02:27.975Z,13.76
2022-10-22T00:04:56.974Z,13.75
2022-10-22T00:07:24.351Z,13.75
2022-10-22T00:09:50.811Z,13.73
2022-10-22T00:12:17.412Z,13.70
2022-10-22T00:14:43.844Z,13.70
2022-10-22T00:17:11.556Z,13.65
2022-10-22T00:19:38.930Z,13.62
2022-10-22T00:22:05.801Z,13.60
2022-10-22T00:24:33.374Z,13.57
2022-10-22T00:27:00.319Z,13.55
2022-10-22T00:29:26.695Z,13.54
2022-10-22T00:31:53.317Z,13.54
2022-10-22T00:34:22.292Z,13.52
2022-10-22T00:36:50.355Z,13.53
2022-10-22T00:39:19.199Z,13.53
2022-10-22T00:41:48.453Z,13.53
2022-10-22T00:44:52.628Z,13.56
2022-10-22T00:47:20.718Z,13.55
2022-10-22T00:49:48.178Z,13.54
2022-10-22T00:52:15.008Z,13.53
2022-10-22T00:54:42.479Z,13.54
2022-10-22T00:57:09.725Z,13.53
2022-10-22T00:59:36.758Z,13.53
2022-10-22T01:02:04.055Z,13.53
2022-10-22T01:04:30.638Z,13.52
2022-10-22T01:06:57.070Z,13.50
2022-10-22T01:09:38.319Z,13.53
2022-10-22T01:12:13.806Z,13.49
2022-10-22T01:14:58.243Z,13.50
2022-10-22T01:17:50.691Z,13.50
2022-10-22T01:20:56.008Z,13.51
2022-10-22T01:24:04.811Z,13.50
2022-10-22T01:26:34.013Z,13.44
2022-10-22T01:29:05.201Z,13.44
2022-10-22T01:31:38.722Z,13.44
2022-10-22T01:34:08.367Z,13.43
2022-10-22T01:36:37.357Z,13.41
2022-10-22T01:39:05.653Z,13.41
2022-10-22T01:41:32.042Z,13.40
2022-10-22T01:43:58.703Z,13.41
2022-10-22T01:46:28.198Z,13.40
2022-10-22T01:49:39.299Z,13.42
2022-10-22T01:52:27.737Z,13.41
2022-10-22T01:55:26.457Z,13.43
2022-10-22T01:58:08.077Z,13.39
2022-10-22T02:00:39.066Z,13.37
2022-10-22T02:03:17.447Z,13.37
2022-10-22T02:05:52.221Z,13.38
2022-10-22T02:08:24.275Z,13.37
2022-10-22T02:10:51.478Z,13.36
2022-10-22T02:13:24.849Z,13.35
2022-10-22T02:15:52.822Z,13.34
2022-10-22T02:18:25.895Z,13.35
2022-10-22T02:20:53.255Z,13.32
2022-10-22T02:23:21.337Z,13.31
2022-10-22T02:25:53.715Z,13.31
2022-10-22T02:28:29.123Z,13.30
2022-10-22T02:31:03.655Z,13.29
2022-10-22T02:33:38.872Z,13.27
2022-10-22T02:36:07.295Z,13.25
2022-10-22T02:38:34.604Z,13.22
2022-10-22T02:41:01.389Z,13.20
2022-10-22T02:43:29.445Z,13.18
2022-10-22T02:45:55.885Z,13.17
2022-10-22T02:48:22.471Z,13.17
2022-10-22T02:50:48.929Z,13.16
2022-10-22T02:53:15.263Z,13.15
2022-10-22T02:55:41.639Z,13.14
2022-10-22T02:58:07.983Z,13.13
2022-10-22T03:00:34.375Z,13.11
2022-10-22T03:03:00.843Z,13.10
2022-10-22T03:05:27.170Z,13.08
2022-10-22T03:07:53.487Z,13.08
2022-10-22T03:10:19.833Z,13.09
2022-10-22T03:12:46.242Z,13.05
2022-10-22T03:15:12.990Z,13.06
2022-10-22T03:17:39.550Z,13.06
2022-10-22T03:20:06.612Z,13.05
2022-10-22T03:22:35.227Z,13.09
2022-10-22T03:25:07.953Z,13.09
2022-10-22T03:27:36.850Z,13.07
2022-10-22T03:30:04.254Z,13.07
2022-10-22T03:32:30.722Z,13.06
2022-10-22T03:34:57.173Z,13.03
2022-10-22T03:37:25.079Z,13.04
2022-10-22T03:39:52.810Z,13.04
2022-10-22T03:42:19.652Z,13.04
2022-10-22T03:44:46.201Z,13.03
2022-10-22T03:47:12.670Z,13.01
2022-10-22T03:49:39.049Z,13.02
2022-10-22T03:52:10.212Z,13.02
2022-10-22T03:57:09.724Z,13.00
2022-10-22T03:59:37.592Z,12.99
2022-10-22T04:02:04.535Z,12.98
2022-10-22T04:04:31.140Z,12.98
2022-10-22T04:06:57.447Z,12.96
2022-10-22T04:09:23.802Z,12.94
2022-10-22T04:11:50.168Z,12.94
2022-10-22T04:14:16.555Z,12.91
2022-10-22T04:16:43.025Z,12.91
2022-10-22T04:19:09.369Z,12.89
2022-10-22T04:21:35.809Z,12.88
2022-10-22T04:24:02.407Z,12.86
2022-10-22T04:26:28.890Z,12.87
2022-10-22T04:28:55.273Z,12.86
2022-10-22T04:31:25.169Z,12.85
2022-10-22T04:33:56.913Z,12.85
2022-10-22T04:36:24.411Z,12.83
2022-10-22T04:38:57.333Z,12.86
2022-10-22T04:41:29.772Z,12.84
2022-10-22T04:43:57.244Z,12.83
2022-10-22T04:46:24.791Z,12.83
2022-10-22T04:48:52.571Z,12.84
2022-10-22T04:51:20.999Z,12.83
2022-10-22T04:53:48.211Z,12.83
2022-10-22T04:56:21.644Z,12.85
2022-10-22T04:58:49.935Z,12.83
2022-10-22T05:01:23.349Z,12.87
2022-10-22T05:03:51.717Z,12.84
2022-10-22T05:06:20.376Z,12.84
2022-10-22T05:08:47.805Z,12.83
2022-10-22T05:11:20.369Z,12.83
2022-10-22T05:13:47.423Z,12.80
2022-10-22T05:16:14.366Z,12.80
2022-10-22T05:18:42.889Z,12.80
2022-10-22T05:21:11.645Z,12.80
2022-10-22T05:23:38.183Z,12.78
2022-10-22T05:26:06.642Z,12.77
2022-10-22T05:28:34.300Z,12.77
2022-10-22T05:31:01.690Z,12.76
2022-10-22T05:33:30.456Z,12.76
2022-10-22T05:35:58.266Z,12.74
2022-10-22T05:38:24.998Z,12.72
2022-10-22T05:41:13.162Z,12.73
2022-10-22T05:43:39.655Z,12.72
2022-10-22T05:46:12.155Z,12.73
2022-10-22T05:48:38.850Z,12.69
2022-10-22T05:51:10.934Z,12.68
2022-10-22T05:53:39.494Z,12.65
2022-10-22T05:56:08.844Z,12.64
2022-10-22T05:58:36.638Z,12.64
2022-10-22T06:01:18.310Z,12.63
2022-10-22T06:03:45.601Z,12.60
2022-10-22T06:06:23.145Z,12.62
2022-10-22T06:08:51.541Z,12.59
2022-10-22T06:11:19.273Z,12.59
2022-10-22T06:13:46.736Z,12.58
2022-10-22T06:16:13.539Z,12.58
2022-10-22T06:18:40.488Z,12.58
2022-10-22T06:21:09.623Z,12.58
2022-10-22T06:23:37.414Z,12.58
2022-10-22T06:26:05.255Z,12.56
2022-10-22T06:28:32.790Z,12.56
2022-10-22T06:31:00.873Z,12.56
2022-10-22T06:33:28.801Z,12.59
2022-10-22T06:35:55.241Z,12.56
2022-10-22T06:38:21.814Z,12.56
2022-10-22T06:40:48.145Z,12.54
2022-10-22T06:43:14.715Z,12.54
2022-10-22T06:45:41.198Z,12.54
2022-10-22T06:48:07.662Z,12.56
2022-10-22T06:50:35.061Z,12.59
2022-10-22T06:53:01.522Z,12.59
2022-10-22T06:55:28.224Z,12.61
2022-10-22T06:57:55.593Z,12.62
2022-10-22T07:00:22.415Z,12.64
2022-10-22T07:02:56.422Z,12.68
2022-10-22T07:05:25.513Z,12.69
2022-10-22T07:07:51.871Z,12.72
2022-10-22T07:10:18.437Z,12.75
2022-10-22T07:12:44.850Z,12.77
2022-10-22T07:15:11.542Z,12.78
2022-10-22T07:17:37.959Z,12.81
2022-10-22T07:20:04.916Z,12.82
2022-10-22T07:22:31.501Z,12.82
2022-10-22T07:24:57.880Z,12.84
2022-10-22T07:27:24.325Z,12.86
2022-10-22T07:29:50.803Z,12.89
2022-10-22T07:32:19.632Z,12.95
2022-10-22T07:34:48.000Z,12.99
2022-10-22T07:37:14.474Z,13.03
2022-10-22T07:39:40.989Z,13.08
2022-10-22T07:42:07.369Z,13.12
2022-10-22T07:44:33.834Z,13.15
2022-10-22T07:47:02.866Z,13.19
2022-10-22T07:49:29.225Z,13.22
2022-10-22T07:51:56.963Z,13.27
2022-10-22T07:54:23.891Z,13.32
2022-10-22T07:56:50.300Z,13.35
2022-10-22T07:59:16.667Z,13.40
2022-10-22T08:01:43.084Z,13.43
2022-10-22T08:04:09.839Z,13.48
2022-10-22T08:06:36.562Z,13.53
2022-10-22T08:09:03.071Z,13.59
2022-10-22T08:11:29.626Z,13.64
2022-10-22T08:13:55.953Z,13.70
2022-10-22T08:16:22.257Z,13.72
2022-10-22T08:18:48.589Z,13.74
2022-10-22T08:21:14.951Z,13.79
2022-10-22T08:23:41.337Z,13.82
2022-10-22T08:26:07.756Z,13.87
2022-10-22T08:28:36.993Z,13.87
2022-10-22T08:31:07.737Z,13.90
2022-10-22T08:33:34.798Z,13.90
2022-10-22T08:36:01.351Z,13.92
2022-10-22T08:38:27.829Z,13.92
2022-10-22T08:41:05.927Z,13.95
2022-10-22T08:44:01.892Z,13.96
2022-10-22T08:46:43.722Z,13.96
2022-10-22T08:49:19.736Z,14.00
2022-10-22T08:51:46.366Z,14.02
2022-10-22T08:54:36.743Z,14.07
2022-10-22T08:57:16.430Z,14.14
2022-10-22T08:59:51.567Z,14.22
2022-10-22T09:02:33.692Z,14.30
2022-10-22T09:05:18.001Z,14.33
2022-10-22T09:07:49.909Z,14.33
2022-10-22T09:10:19.281Z,14.34
2022-10-22T09:12:47.978Z,14.36
2022-10-22T09:15:16.544Z,14.42
2022-10-22T09:18:14.331Z,14.57
2022-10-22T09:20:49.704Z,14.63
2022-10-22T09:23:52.807Z,14.66
2022-10-22T09:26:19.395Z,14.71
2022-10-22T09:28:50.943Z,14.74
2022-10-22T09:31:18.042Z,14.82
2022-10-22T09:33:48.764Z,14.89
2022-10-22T09:36:17.996Z,14.94
2022-10-22T09:38:53.150Z,14.99
2022-10-22T09:41:23.176Z,15.00
2022-10-22T09:43:50.026Z,14.98
2022-10-22T09:46:19.353Z,14.99
2022-10-22T09:48:58.503Z,15.01
2022-10-22T09:51:35.714Z,15.05
2022-10-22T09:54:13.295Z,15.08
2022-10-22T09:56:43.234Z,15.18
2022-10-22T09:59:16.021Z,15.25
2022-10-22T10:01:42.705Z,15.34
2022-10-22T10:04:12.449Z,15.43
2022-10-22T10:06:41.815Z,15.59
2022-10-22T10:09:35.373Z,15.75
2022-10-22T10:12:29.167Z,15.86
2022-10-22T10:15:24.420Z,16.04
2022-10-22T10:18:04.333Z,16.13
2022-10-22T10:20:57.314Z,16.03
2022-10-22T10:23:54.839Z,15.98
2022-10-22T10:26:36.332Z,16.04
2022-10-22T10:29:18.011Z,16.15
2022-10-22T10:32:03.106Z,16.12
2022-10-22T10:34:44.057Z,16.07
2022-10-22T10:37:13.264Z,16.00
2022-10-22T10:39:47.097Z,16.02
2022-10-22T10:42:27.088Z,16.02
2022-10-22T10:45:13.635Z,16.02
2022-10-22T10:48:05.036Z,16.01
2022-10-22T10:50:47.809Z,16.04
2022-10-22T10:53:19.920Z,16.05
2022-10-22T10:55:56.777Z,16.09
2022-10-22T10:58:32.194Z,16.10
2022-10-22T11:01:12.594Z,16.07
2022-10-22T11:03:52.047Z,16.05
2022-10-22T11:06:23.146Z,16.14
2022-10-22T11:09:03.462Z,16.25
2022-10-22T11:11:48.665Z,16.25
2022-10-22T11:14:27.800Z,16.22
2022-10-22T11:17:04.340Z,16.17
2022-10-22T11:19:51.053Z,16.16
2022-10-22T11:22:50.542Z,16.23
2022-10-22T11:25:38.523Z,16.25
2022-10-22T11:28:29.769Z,16.29
2022-10-22T11:31:02.023Z,16.31
2022-10-22T11:33:38.020Z,16.42
2022-10-22T11:36:05.769Z,16.48
2022-10-22T11:38:35.123Z,16.63
2022-10-22T11:41:10.731Z,16.79
2022-10-22T11:43:54.982Z,17.03
2022-10-22T11:46:21.251Z,16.99
2022-10-22T11:49:16.921Z,16.91
2022-10-22T11:51:44.753Z,17.07
2022-10-22T11:54:42.807Z,17.22
2022-10-22T11:57:15.057Z,17.27
2022-10-22T11:59:47.415Z,17.31
2022-10-22T12:02:30.460Z,17.34
2022-10-22T12:05:22.673Z,17.37
2022-10-22T12:08:03.875Z,17.29
2022-10-22T12:10:48.472Z,17.01
2022-10-22T12:13:24.332Z,16.82
2022-10-22T12:15:54.584Z,16.73
2022-10-22T12:18:25.284Z,16.64
2022-10-22T12:20:53.864Z,16.55
2022-10-22T12:23:24.660Z,16.57
2022-10-22T12:25:51.007Z,16.64
2022-10-22T12:28:18.978Z,16.65
2022-10-22T12:30:45.346Z,16.65
2022-10-22T12:33:21.568Z,16.68
2022-10-22T12:35:51.384Z,16.73
2022-10-22T12:38:21.383Z,16.82
2022-10-22T12:40:49.194Z,16.90
2022-10-22T12:43:28.841Z,17.07
2022-10-22T12:45:57.660Z,17.17
2022-10-22T12:48:28.140Z,17.22
2022-10-22T12:50:57.971Z,17.26
2022-10-22T12:53:49.407Z,17.30
2022-10-22T12:56:32.323Z,17.25
2022-10-22T12:59:01.867Z,17.22
2022-10-22T13:01:35.943Z,17.22
2022-10-22T13:04:07.365Z,17.20
2022-10-22T13:06:35.773Z,17.14
2022-10-22T13:09:02.136Z,17.15
2022-10-22T13:11:41.004Z,17.28
2022-10-22T13:14:25.779Z,17.26
2022-10-22T13:17:07.693Z,17.27
2022-10-22T13:19:48.135Z,17.36
2022-10-22T13:22:35.586Z,17.44
2022-10-22T13:25:13.752Z,17.49
2022-10-22T13:27:44.116Z,17.52
2022-10-22T13:30:22.088Z,17.52
2022-10-22T13:32:56.751Z,17.49
2022-10-22T13:35:43.501Z,17.52
2022-10-22T13:38:18.396Z,17.48
2022-10-22T13:40:45.005Z,17.42
2022-10-22T13:43:12.458Z,17.38
2022-10-22T13:45:39.504Z,17.33
2022-10-22T13:48:06.418Z,17.24
2022-10-22T13:50:32.785Z,17.16
2022-10-22T13:52:59.306Z,17.15
2022-10-22T13:55:29.059Z,17.14
2022-10-22T13:58:06.747Z,17.19
2022-10-22T14:00:33.156Z,17.22
2022-10-22T14:03:00.011Z,17.22
2022-10-22T14:05:26.434Z,17.20
2022-10-22T14:07:53.051Z,17.16
2022-10-22T14:10:24.255Z,17.12
2022-10-22T14:12:53.663Z,17.11
2022-10-22T14:15:25.288Z,17.10
2022-10-22T14:17:57.511Z,17.09
2022-10-22T14:20:27.792Z,17.06
2022-10-22T14:22:54.196Z,17.05
2022-10-22T14:25:26.008Z,17.06
2022-10-22T14:27:52.595Z,17.05
2022-10-22T14:30:21.866Z,17.04
2022-10-22T14:32:48.829Z,17.03
2022-10-22T14:35:18.433Z,17.05
2022-10-22T14:37:44.877Z,17.04
2022-10-22T14:40:14.700Z,17.04
2022-10-22T14:42:43.709Z,17.01
2022-10-22T14:45:17.459Z,16.99
2022-10-22T14:47:44.259Z,16.97
2022-10-22T14:50:11.227Z,17.00
2022-10-22T14:52:37.821Z,17.00
2022-10-22T14:55:04.611Z,17.00
2022-10-22T14:57:30.925Z,17.01
2022-10-22T14:59:57.239Z,17.01
2022-10-22T15:02:23.589Z,17.02
2022-10-22T15:04:50.213Z,17.02
2022-10-22T15:07:18.991Z,17.02
2022-10-22T15:09:45.695Z,17.01
2022-10-22T15:12:11.999Z,17.02
2022-10-22T15:14:38.439Z,17.00
2022-10-22T15:17:05.039Z,16.97
2022-10-22T15:19:31.368Z,16.96
2022-10-22T15:21:57.723Z,16.95
2022-10-22T15:24:24.064Z,16.92
2022-10-22T15:26:53.950Z,16.90
2022-10-22T15:29:20.287Z,16.87
2022-10-22T15:31:50.847Z,16.85
2022-10-22T15:34:23.158Z,16.85
2022-10-22T15:36:50.281Z,16.77
2022-10-22T15:39:17.457Z,16.74
2022-10-22T15:41:43.939Z,16.71
2022-10-22T15:44:17.012Z,16.69
2022-10-22T15:46:43.676Z,16.64
2022-10-22T15:49:10.677Z,16.60
2022-10-22T15:51:37.055Z,16.56
2022-10-22T15:54:06.622Z,16.54
2022-10-22T15:56:36.390Z,16.49
2022-10-22T15:59:04.053Z,16.44
2022-10-22T16:01:32.516Z,16.42
2022-10-22T16:04:05.342Z,16.35
2022-10-22T16:06:38.191Z,16.31
2022-10-22T16:09:07.491Z,16.23
2022-10-22T16:11:35.178Z,16.19
2022-10-22T16:14:02.274Z,16.18
2022-10-22T16:16:30.369Z,16.14
2022-10-22T16:18:56.807Z,16.13
2022-10-22T16:21:23.914Z,16.08
2022-10-22T16:23:50.621Z,16.04
2022-10-22T16:26:18.765Z,16.01
2022-10-22T16:28:46.681Z,15.97
2022-10-22T16:31:15.058Z,15.93
2022-10-22T16:33:47.931Z,15.89
2022-10-22T16:36:18.924Z,15.84
2022-10-22T16:38:46.586Z,15.80
2022-10-22T16:41:15.677Z,15.80
2022-10-22T16:43:48.388Z,15.79
2022-10-22T16:46:20.107Z,15.77
2022-10-22T16:48:48.019Z,15.72
2022-10-22T16:51:16.551Z,15.70
2022-10-22T16:53:43.430Z,15.66
2022-10-22T16:56:11.285Z,15.62
2022-10-22T16:58:38.172Z,15.60
2022-10-22T17:01:09.399Z,15.59
2022-10-22T17:03:36.250Z,15.55
2022-10-22T17:06:04.075Z,15.51
2022-10-22T17:08:31.974Z,15.50
2022-10-22T17:10:58.368Z,15.48
2022-10-22T17:13:27.094Z,15.44
2022-10-22T17:16:01.306Z,15.42
2022-10-22T17:18:27.628Z,15.35
2022-10-22T17:20:56.114Z,15.32
2022-10-22T17:23:22.535Z,15.28
2022-10-22T17:25:48.954Z,15.26
2022-10-22T17:28:15.314Z,15.23
2022-10-22T17:30:41.721Z,15.23
2022-10-22T17:33:08.340Z,15.21
2022-10-22T17:35:39.412Z,15.13
2022-10-22T17:38:06.440Z,15.11
2022-10-22T17:40:35.234Z,15.12
2022-10-22T17:43:01.641Z,15.07
2022-10-22T17:45:28.096Z,15.03
2022-10-22T17:47:56.618Z,14.96
2022-10-22T17:50:23.350Z,14.93
2022-10-22T17:52:50.539Z,14.93
2022-10-22T17:55:17.000Z,14.89
2022-10-22T17:57:43.331Z,14.86
2022-10-22T18:00:10.339Z,14.85
2022-10-22T18:02:36.868Z,14.83
2022-10-22T18:05:03.330Z,14.78
2022-10-22T18:07:29.686Z,14.77
2022-10-22T18:09:56.130Z,14.70
2022-10-22T18:12:22.589Z,14.71
2022-10-22T18:14:50.158Z,14.71
2022-10-22T18:17:16.515Z,14.70
2022-10-22T18:19:42.961Z,14.67
2022-10-22T18:22:09.852Z,14.67
2022-10-22T18:24:36.855Z,14.68
2022-10-22T18:27:03.924Z,14.67
2022-10-22T18:29:30.294Z,14.60
2022-10-22T18:31:56.695Z,14.56
2022-10-22T18:34:24.027Z,14.56
2022-10-22T18:36:50.626Z,14.53
2022-10-22T18:39:17.795Z,14.48
2022-10-22T18:41:44.246Z,14.43
2022-10-22T18:44:13.712Z,14.44
2022-10-22T18:46:40.418Z,14.42
2022-10-22T18:49:07.520Z,14.40
2022-10-22T18:51:34.953Z,14.39
2022-10-22T18:54:21.663Z,14.40
2022-10-22T18:56:48.917Z,14.36
2022-10-22T18:59:21.789Z,14.35
2022-10-22T19:01:48.510Z,14.32
2022-10-22T19:04:14.979Z,14.30
2022-10-22T19:06:45.331Z,14.31
2022-10-22T19:09:13.881Z,14.28
2022-10-22T19:11:40.391Z,14.23
2022-10-22T19:14:06.778Z,14.21
2022-10-22T19:16:34.725Z,14.17
2022-10-22T19:19:03.884Z,14.11
2022-10-22T19:21:31.005Z,14.08
2022-10-22T19:23:58.782Z,14.09
2022-10-22T19:26:26.457Z,14.06
2022-10-22T19:28:57.771Z,14.05
2022-10-22T19:31:25.692Z,14.05
2022-10-22T19:33:54.478Z,13.96
2022-10-22T19:36:21.887Z,13.97
2022-10-22T19:38:49.135Z,13.92
2022-10-22T19:41:19.458Z,13.93
2022-10-22T19:43:49.044Z,13.94
2022-10-22T19:46:15.708Z,13.93
2022-10-22T19:48:42.084Z,13.89
2022-10-22T19:51:10.982Z,13.91
2022-10-22T19:53:38.572Z,13.85
2022-10-22T19:56:07.277Z,13.86
2022-10-22T19:58:34.597Z,13.84
2022-10-22T20:01:05.625Z,13.85
2022-10-22T20:03:32.949Z,13.79
2022-10-22T20:05:59.317Z,13.78
2022-10-22T20:08:25.647Z,13.75
2022-10-22T20:10:52.012Z,13.78
2022-10-22T20:13:18.438Z,13.79
2022-10-22T20:15:48.514Z,13.77
2022-10-22T20:18:15.123Z,13.77
2022-10-22T20:20:41.502Z,13.78
2022-10-22T20:23:08.625Z,13.76
2022-10-22T20:25:35.724Z,13.74
2022-10-22T20:28:02.411Z,13.71
2022-10-22T20:30:28.743Z,13.72
2022-10-22T20:32:55.271Z,13.68
2022-10-22T20:35:21.824Z,13.65
2022-10-22T20:37:48.267Z,13.67
2022-10-22T20:40:14.732Z,13.65
2022-10-22T20:42:41.345Z,13.63
2022-10-22T20:45:08.450Z,13.63
2022-10-22T20:47:50.774Z,13.63
2022-10-22T20:50:19.330Z,13.61
2022-10-22T20:52:45.649Z,13.60
2022-10-22T20:55:13.573Z,13.58
2022-10-22T20:57:41.354Z,13.58
2022-10-22T21:00:08.721Z,13.58
2022-10-22T21:02:36.059Z,13.56
2022-10-22T21:05:02.453Z,13.54
2022-10-22T21:07:28.823Z,13.48
2022-10-22T21:09:55.149Z,13.52
2022-10-22T21:12:21.535Z,13.51
2022-10-22T21:14:47.975Z,13.48
2022-10-22T21:17:14.320Z,13.49
2022-10-22T21:19:40.738Z,13.50
2022-10-22T21:22:07.154Z,13.45
2022-10-22T21:24:33.526Z,13.46
2022-10-22T21:26:59.865Z,13.46
2022-10-22T21:29:26.249Z,13.46
2022-10-22T21:31:53.517Z,13.47
2022-10-22T21:34:20.032Z,13.44
2022-10-22T21:39:13.813Z,13.44
2022-10-22T21:41:40.283Z,13.41
2022-10-22T21:44:06.718Z,13.43
2022-10-22T21:46:34.150Z,13.44
2022-10-22T21:49:02.897Z,13.38
2022-10-22T21:51:31.673Z,13.39
2022-10-22T21:53:58.415Z,13.40
2022-10-22T21:56:27.420Z,13.41
2022-10-22T21:58:54.528Z,13.41
2022-10-22T22:01:21.714Z,13.40
2022-10-22T22:03:49.821Z,13.39
2022-10-22T22:06:21.252Z,13.36
2022-10-22T22:08:49.145Z,13.36
2022-10-22T22:11:18.666Z,13.38
2022-10-22T22:13:45.335Z,13.38
2022-10-22T22:16:14.785Z,13.37
2022-10-22T22:18:41.719Z,13.35
2022-10-22T22:21:12.144Z,13.35
2022-10-22T22:23:41.839Z,13.35
2022-10-22T22:26:08.615Z,13.33
2022-10-22T22:28:35.793Z,13.31
2022-10-22T22:31:11.068Z,13.22
2022-10-22T22:33:37.466Z,13.26
2022-10-22T22:36:04.058Z,13.26
2022-10-22T22:38:30.433Z,13.25
2022-10-22T22:40:59.312Z,13.24
2022-10-22T22:43:25.869Z,13.23
2022-10-22T22:46:03.104Z,13.26
2022-10-22T22:48:29.815Z,13.25
2022-10-22T22:50:59.840Z,13.23
2022-10-22T22:53:27.904Z,13.22
2022-10-22T22:56:05.923Z,13.21
2022-10-22T22:58:32.279Z,13.17
2022-10-22T23:01:32.461Z,13.18
2022-10-22T23:04:13.023Z,13.16
2022-10-22T23:06:39.601Z,13.14
2022-10-22T23:09:08.799Z,13.16
2022-10-22T23:11:35.641Z,13.12
2022-10-22T23:14:04.767Z,13.07
2022-10-22T23:16:33.795Z,13.05
2022-10-22T23:19:01.388Z,13.03
2022-10-22T23:21:30.759Z,13.04
2022-10-22T23:24:00.784Z,13.05
2022-10-22T23:26:29.973Z,13.02
2022-10-22T23:29:11.957Z,13.06
2022-10-22T23:31:38.461Z,13.04
2022-10-22T23:34:06.661Z,13.00
2022-10-22T23:36:35.721Z,12.98
2022-10-22T23:39:11.022Z,13.00
2022-10-22T23:41:38.046Z,12.97
2022-10-22T23:44:05.403Z,12.98
2022-10-22T23:46:33.286Z,12.98
2022-10-22T23:49:00.565Z,12.97
2022-10-22T23:51:27.352Z,12.93
2022-10-22T23:53:59.657Z,12.91
2022-10-22T23:56:26.521Z,12.88
2022-10-22T23:58:54.204Z,12.89
